Time;durP1;ratioP1;P1;durP2;ratioP2;P2;SDS_P1;SDS_P2;PMS_P1;PMS_P2;Temp;Humidity;BMP_temperature;BMP_pressure;BME280_temperature;BME280_humidity;BME280_pressure;Samples;Min_cycle;Max_cycle;Signal;HPM_P1;HPM_P2
2023/06/12 00:00:53;;;;;;;18.33;13.60;;;30.50;99.90;;;;;;5106957;28;20083;-49
2023/06/12 00:03:25;;;;;;;11.70;8.57;;;30.40;99.90;;;;;;5091261;28;20052;-56
2023/06/12 00:05:53;;;;;;;13.13;8.50;;;30.30;99.90;;;;;;5086059;28;20079;-57
2023/06/12 00:08:20;;;;;;;13.40;9.70;;;30.30;99.90;;;;;;5083072;28;20045;-61
2023/06/12 00:10:47;;;;;;;25.88;13.27;;;30.30;99.90;;;;;;5086392;28;20025;-48
2023/06/12 00:13:14;;;;;;;22.63;13.50;;;30.40;99.90;;;;;;5094396;28;20025;-60
2023/06/12 00:15:41;;;;;;;23.77;17.35;;;30.50;99.90;;;;;;5085898;28;20095;-62
2023/06/12 00:18:07;;;;;;;47.00;32.40;;;30.60;99.90;;;;;;5086271;28;20012;-59
2023/06/12 00:20:35;;;;;;;46.17;31.77;;;30.50;99.90;;;;;;5068163;28;20035;-54
2023/06/12 00:23:02;;;;;;;26.08;18.52;;;30.10;99.90;;;;;;5066586;28;20301;-58
2023/06/12 00:25:29;;;;;;;21.50;14.35;;;30.10;99.90;;;;;;5066427;28;20036;-60
2023/06/12 00:27:55;;;;;;;17.67;11.15;;;30.00;99.90;;;;;;5066185;28;20067;-55
2023/06/12 00:30:22;;;;;;;27.73;18.23;;;30.00;99.90;;;;;;5080405;28;20055;-61
2023/06/12 00:32:49;;;;;;;27.98;18.63;;;30.10;99.90;;;;;;5086019;28;20122;-57
2023/06/12 00:35:19;;;;;;;28.40;16.80;;;30.20;99.90;;;;;;5083733;28;20040;-58
2023/06/12 00:37:50;;;;;;;30.65;16.98;;;30.20;99.90;;;;;;5071404;28;20027;-60
2023/06/12 00:40:18;;;;;;;21.02;13.75;;;30.30;99.90;;;;;;5074035;28;20051;-59
2023/06/12 00:42:50;;;;;;;18.73;11.05;;;30.30;99.90;;;;;;5075617;28;20024;-58
2023/06/12 00:45:18;;;;;;;15.05;8.13;;;30.30;99.90;;;;;;5075733;28;20322;-59
2023/06/12 00:48:05;;;;;;;13.32;7.43;;;30.30;99.90;;;;;;5074960;28;20028;-60
2023/06/12 00:50:33;;;;;;;15.07;8.20;;;30.40;99.90;;;;;;5065898;28;20347;-59
2023/06/12 00:53:00;;;;;;;14.27;7.30;;;30.70;99.90;;;;;;5064944;28;20040;-61
2023/06/12 00:55:32;;;;;;;5.20;3.28;;;30.80;99.90;;;;;;5063956;28;20059;-60
2023/06/12 00:58:00;;;;;;;9.70;3.17;;;30.70;99.90;;;;;;5081443;28;20024;-62
2023/06/12 01:00:27;;;;;;;10.18;3.22;;;30.30;99.90;;;;;;5073662;28;20037;-59
2023/06/12 01:03:04;;;;;;;7.75;2.75;;;30.20;99.90;;;;;;5064646;28;20063;-58
2023/06/12 01:05:34;;;;;;;5.82;2.15;;;30.10;99.90;;;;;;5064988;28;20228;-55
2023/06/12 01:08:27;;;;;;;9.27;2.33;;;30.10;99.90;;;;;;5084121;28;20057;-56
2023/06/12 01:11:17;;;;;;;3.78;1.58;;;30.10;99.90;;;;;;5084676;28;20032;-55
2023/06/12 01:13:43;;;;;;;12.65;2.50;;;30.10;99.90;;;;;;5085456;28;20189;-54
2023/06/12 01:16:10;;;;;;;14.38;2.22;;;30.40;99.90;;;;;;5085560;28;20028;-52
2023/06/12 01:18:37;;;;;;;7.97;1.35;;;30.60;99.90;;;;;;5084612;28;20359;-54
2023/06/12 01:21:14;;;;;;;5.07;1.42;;;30.40;99.90;;;;;;5085582;28;20353;-55
2023/06/12 01:24:19;;;;;;;9.38;1.63;;;30.20;99.90;;;;;;5089610;28;20039;-60
2023/06/12 01:27:18;;;;;;;3.22;1.50;;;30.20;99.90;;;;;;5061148;28;20029;-59
2023/06/12 01:30:09;;;;;;;6.45;1.50;;;30.20;99.90;;;;;;5034567;28;20069;-64
2023/06/12 01:32:38;;;;;;;9.80;1.85;;;30.20;99.90;;;;;;5071206;28;20040;-56
2023/06/12 01:35:16;;;;;;;55.45;6.50;;;30.20;99.90;;;;;;5084230;28;20069;-59
2023/06/12 01:37:56;;;;;;;50.55;7.00;;;30.20;99.90;;;;;;5083999;28;20434;-58
2023/06/12 01:40:25;;;;;;;16.90;2.45;;;30.10;99.90;;;;;;5081141;28;20033;-58
2023/06/12 01:42:52;;;;;;;15.30;2.90;;;30.10;99.90;;;;;;5084469;28;20012;-58
2023/06/12 01:45:19;;;;;;;14.82;2.22;;;30.10;99.90;;;;;;5085385;28;20028;-59
2023/06/12 01:47:45;;;;;;;11.02;1.90;;;30.10;99.90;;;;;;5084819;28;20016;-57
2023/06/12 01:50:15;;;;;;;11.30;1.77;;;30.10;99.90;;;;;;5085052;28;20036;-58
2023/06/12 01:52:41;;;;;;;5.75;1.15;;;30.10;99.90;;;;;;5084807;28;20032;-57
2023/06/12 01:55:09;;;;;;;13.82;1.45;;;30.00;99.90;;;;;;5084827;28;20109;-59
2023/06/12 01:57:38;;;;;;;8.98;1.48;;;29.90;99.90;;;;;;5084167;28;20023;-56
2023/06/12 02:00:05;;;;;;;8.35;1.50;;;29.90;99.90;;;;;;5085028;28;20036;-58
2023/06/12 02:02:34;;;;;;;11.07;1.65;;;29.80;99.90;;;;;;5084678;28;20020;-59
2023/06/12 02:05:01;;;;;;;7.65;1.48;;;29.80;99.90;;;;;;5084159;28;20028;-56
2023/06/12 02:07:27;;;;;;;6.03;1.15;;;29.80;99.90;;;;;;5091399;28;20055;-53
2023/06/12 02:09:54;;;;;;;7.07;1.70;;;29.80;99.90;;;;;;5105118;28;20039;-60
2023/06/12 02:12:20;;;;;;;6.22;1.65;;;29.90;99.90;;;;;;5104577;28;20028;-58
2023/06/12 02:14:50;;;;;;;5.10;1.33;;;29.90;99.90;;;;;;5105099;28;20078;-58
2023/06/12 02:17:20;;;;;;;4.18;1.35;;;29.90;99.90;;;;;;5104592;28;20020;-57
2023/06/12 02:19:49;;;;;;;5.30;1.40;;;29.90;99.90;;;;;;5104712;28;20191;-55
2023/06/12 02:22:16;;;;;;;3.13;1.00;;;29.80;99.90;;;;;;5104497;28;20039;-56
2023/06/12 02:24:42;;;;;;;5.05;1.00;;;29.80;99.90;;;;;;5104629;28;20307;-56
2023/06/12 02:27:10;;;;;;;5.03;1.30;;;29.90;99.90;;;;;;5104253;28;20028;-54
2023/06/12 02:29:36;;;;;;;9.02;1.13;;;29.90;99.90;;;;;;5104893;28;20047;-55
2023/06/12 02:32:03;;;;;;;5.47;1.27;;;29.90;99.90;;;;;;5104539;28;20080;-57
2023/06/12 02:34:29;;;;;;;5.05;1.23;;;29.90;99.90;;;;;;5104280;28;20028;-56
2023/06/12 02:36:56;;;;;;;7.22;1.20;;;29.90;99.90;;;;;;5099917;28;20240;-55
2023/06/12 02:39:22;;;;;;;6.53;1.35;;;29.90;99.90;;;;;;5093261;28;20031;-57
2023/06/12 02:41:49;;;;;;;11.20;1.63;;;29.90;99.90;;;;;;5084206;28;20380;-55
2023/06/12 02:44:16;;;;;;;51.35;5.35;;;30.00;99.90;;;;;;5084383;28;20040;-53
2023/06/12 02:46:55;;;;;;;15.73;2.15;;;30.00;99.90;;;;;;5084048;28;20021;-58
2023/06/12 02:49:24;;;;;;;11.95;1.73;;;30.00;99.90;;;;;;5081270;28;20082;-64
2023/06/12 02:51:50;;;;;;;8.90;1.40;;;29.90;99.90;;;;;;5081866;28;20251;-63
2023/06/12 02:54:19;;;;;;;10.73;1.63;;;30.10;99.90;;;;;;5083784;28;20300;-63
2023/06/12 02:56:46;;;;;;;10.60;1.40;;;30.30;99.90;;;;;;5087337;28;20039;-63
2023/06/12 02:59:22;;;;;;;15.98;1.40;;;30.20;99.90;;;;;;5077746;28;20031;-62
2023/06/12 03:01:49;;;;;;;7.97;1.20;;;30.20;99.90;;;;;;5084811;28;20091;-63
2023/06/12 03:04:19;;;;;;;7.63;1.52;;;30.20;99.90;;;;;;5095217;28;20303;-62
2023/06/12 03:06:47;;;;;;;11.30;1.15;;;30.00;99.90;;;;;;5090148;28;20036;-61
2023/06/12 03:09:18;;;;;;;8.55;1.20;;;30.00;99.90;;;;;;5090784;28;20035;-61
2023/06/12 03:11:46;;;;;;;7.47;1.20;;;29.90;99.90;;;;;;5094027;28;20039;-62
2023/06/12 03:14:13;;;;;;;8.15;1.33;;;29.90;99.90;;;;;;5091360;28;20024;-62
2023/06/12 03:16:40;;;;;;;3.70;1.23;;;29.90;99.90;;;;;;5093137;28;20032;-63
2023/06/12 03:19:08;;;;;;;8.55;1.27;;;29.80;99.90;;;;;;5094717;28;20304;-61
2023/06/12 03:21:35;;;;;;;7.00;1.23;;;29.80;99.90;;;;;;5099064;28;20047;-62
2023/06/12 03:24:02;;;;;;;4.13;1.17;;;29.80;99.90;;;;;;5108481;28;20333;-64
2023/06/12 03:26:31;;;;;;;6.63;1.48;;;29.80;99.90;;;;;;5096354;28;20032;-61
2023/06/12 03:28:58;;;;;;;6.22;1.40;;;29.80;99.90;;;;;;5092949;28;20335;-62
2023/06/12 03:31:26;;;;;;;9.30;1.42;;;29.80;99.90;;;;;;5094959;28;20366;-63
2023/06/12 03:33:54;;;;;;;11.30;1.20;;;29.80;99.90;;;;;;5100599;28;20037;-62
2023/06/12 03:36:23;;;;;;;8.75;1.00;;;29.80;99.90;;;;;;5093066;28;20020;-63
2023/06/12 03:38:50;;;;;;;5.53;1.20;;;29.80;99.90;;;;;;5092240;28;20032;-62
2023/06/12 03:41:20;;;;;;;5.35;1.08;;;29.70;99.90;;;;;;5087104;28;20078;-62
2023/06/12 03:43:47;;;;;;;4.78;1.02;;;29.70;99.90;;;;;;5087285;28;20077;-62
2023/06/12 03:46:14;;;;;;;7.70;1.25;;;29.60;99.90;;;;;;5087195;28;20028;-62
2023/06/12 03:48:40;;;;;;;9.57;1.13;;;29.60;99.90;;;;;;5087245;28;20028;-63
2023/06/12 03:51:07;;;;;;;6.63;1.05;;;29.60;99.90;;;;;;5087008;28;20362;-63
2023/06/12 03:53:34;;;;;;;6.55;0.90;;;29.50;99.90;;;;;;5087402;28;20032;-62
2023/06/12 03:56:00;;;;;;;4.50;0.90;;;29.60;99.90;;;;;;5085733;28;20216;-62
2023/06/12 03:58:27;;;;;;;6.28;0.80;;;29.60;99.90;;;;;;5087042;28;20024;-65
2023/06/12 04:00:53;;;;;;;6.55;0.90;;;29.50;99.90;;;;;;5091966;28;20620;-64
2023/06/12 04:03:21;;;;;;;3.45;0.80;;;29.50;99.90;;;;;;5101239;28;20024;-65
2023/06/12 04:05:51;;;;;;;5.65;1.17;;;29.50;99.90;;;;;;5107180;28;20102;-64
2023/06/12 04:08:18;;;;;;;6.72;1.30;;;29.50;99.90;;;;;;5107055;28;20077;-63
2023/06/12 04:10:45;;;;;;;3.83;1.00;;;29.50;99.90;;;;;;5106950;28;20096;-63
2023/06/12 04:13:12;;;;;;;5.70;1.08;;;29.50;99.90;;;;;;5106985;28;20057;-63
2023/06/12 04:15:39;;;;;;;11.13;1.10;;;29.50;99.90;;;;;;5107128;28;20425;-63
2023/06/12 04:18:07;;;;;;;8.75;1.02;;;29.50;99.90;;;;;;5106552;28;20115;-62
2023/06/12 04:20:34;;;;;;;4.93;1.17;;;29.50;99.90;;;;;;5106682;28;20024;-64
2023/06/12 04:23:11;;;;;;;9.23;1.25;;;29.40;99.90;;;;;;5107162;28;20105;-62
2023/06/12 04:25:38;;;;;;;7.47;1.10;;;29.40;99.80;;;;;;5106682;28;20339;-62
2023/06/12 04:28:07;;;;;;;2.97;0.80;;;29.40;99.90;;;;;;5105989;28;20028;-63
2023/06/12 04:30:35;;;;;;;6.80;0.82;;;29.40;99.90;;;;;;5106643;28;20028;-63
2023/06/12 04:33:02;;;;;;;5.07;1.00;;;29.40;99.80;;;;;;5106546;28;20054;-63
2023/06/12 04:35:29;;;;;;;2.33;0.90;;;29.30;99.80;;;;;;5106519;28;20067;-63
2023/06/12 04:37:55;;;;;;;6.05;0.90;;;29.30;99.80;;;;;;5106753;28;20031;-62
2023/06/12 04:40:22;;;;;;;6.05;0.90;;;29.30;99.70;;;;;;5098017;28;20031;-62
2023/06/12 04:42:53;;;;;;;6.43;1.10;;;29.30;99.80;;;;;;5086145;28;20417;-62
2023/06/12 04:45:21;;;;;;;5.70;0.77;;;29.30;99.70;;;;;;5090555;28;20036;-63
2023/06/12 04:47:48;;;;;;;7.78;1.30;;;29.30;99.80;;;;;;5090477;28;20087;-64
2023/06/12 04:50:14;;;;;;;4.95;1.00;;;29.20;99.70;;;;;;5086530;28;20052;-63
2023/06/12 04:52:41;;;;;;;5.25;0.90;;;29.30;99.80;;;;;;5086178;28;20240;-64
2023/06/12 04:55:08;;;;;;;9.30;1.20;;;29.30;99.90;;;;;;5086016;28;20304;-63
2023/06/12 04:57:39;;;;;;;7.80;1.08;;;29.30;99.90;;;;;;5085863;28;20031;-63
2023/06/12 05:00:06;;;;;;;6.13;1.40;;;29.30;99.90;;;;;;5086356;28;20308;-63
2023/06/12 05:02:35;;;;;;;8.30;1.42;;;29.30;99.90;;;;;;5086018;28;20330;-63
2023/06/12 05:05:02;;;;;;;8.68;1.75;;;29.30;99.90;;;;;;5086190;28;20078;-63
2023/06/12 05:07:28;;;;;;;7.15;1.80;;;29.30;99.90;;;;;;5085916;28;20321;-60
2023/06/12 05:09:55;;;;;;;10.63;1.88;;;29.20;99.90;;;;;;5085716;28;20301;-65
2023/06/12 05:12:22;;;;;;;11.45;1.73;;;29.30;99.90;;;;;;5086017;28;20365;-64
2023/06/12 05:14:48;;;;;;;6.78;1.40;;;29.20;99.80;;;;;;5092567;28;20238;-63
2023/06/12 05:17:15;;;;;;;5.85;1.52;;;29.20;99.90;;;;;;5085056;28;20036;-62
2023/06/12 05:19:42;;;;;;;7.32;1.30;;;29.20;99.90;;;;;;5085756;28;20033;-63
2023/06/12 05:22:08;;;;;;;5.40;1.10;;;29.20;99.80;;;;;;5085450;28;20204;-63
2023/06/12 05:24:35;;;;;;;4.65;0.93;;;29.20;99.80;;;;;;5069089;28;20205;-63
2023/06/12 05:27:01;;;;;;;6.63;1.02;;;29.10;99.70;;;;;;5065041;28;20036;-63
2023/06/12 05:29:28;;;;;;;5.90;1.20;;;29.20;99.70;;;;;;5078773;28;20052;-63
2023/06/12 05:31:54;;;;;;;11.85;1.27;;;29.10;99.70;;;;;;5085238;28;20024;-64
2023/06/12 05:34:21;;;;;;;6.90;1.35;;;29.20;99.80;;;;;;5085151;28;20165;-63
2023/06/12 05:36:47;;;;;;;5.72;1.20;;;29.20;99.60;;;;;;5085019;28;20305;-65
2023/06/12 05:39:16;;;;;;;5.75;1.23;;;29.10;99.60;;;;;;5083254;28;20371;-63
2023/06/12 05:41:43;;;;;;;5.75;1.20;;;29.10;99.70;;;;;;5084769;28;20212;-63
2023/06/12 05:44:10;;;;;;;8.23;1.73;;;29.00;99.80;;;;;;5085050;28;20316;-65
2023/06/12 05:46:36;;;;;;;14.35;9.77;;;29.10;99.90;;;;;;5084831;28;20028;-64
2023/06/12 05:49:03;;;;;;;24.38;22.05;;;29.20;99.80;;;;;;5084845;28;20064;-64
2023/06/12 05:51:29;;;;;;;31.27;27.80;;;29.10;99.80;;;;;;5084694;28;20066;-64
2023/06/12 05:53:56;;;;;;;37.70;33.78;;;29.10;99.70;;;;;;5084032;28;20046;-64
2023/06/12 05:56:23;;;;;;;42.85;38.20;;;29.10;99.70;;;;;;5090516;28;20028;-65
2023/06/12 05:58:50;;;;;;;43.60;36.80;;;29.10;99.60;;;;;;5084776;28;20118;-65
2023/06/12 06:01:21;;;;;;;43.40;35.42;;;29.10;99.60;;;;;;5084623;28;20024;-64
2023/06/12 06:03:50;;;;;;;42.13;35.92;;;29.10;99.70;;;;;;5084553;28;20063;-64
2023/06/12 06:06:17;;;;;;;52.42;38.30;;;29.00;99.50;;;;;;5084370;28;20024;-63
2023/06/12 06:08:46;;;;;;;81.68;63.53;;;29.00;99.60;;;;;;5102174;28;20266;-64
2023/06/12 06:11:12;;;;;;;83.75;66.60;;;29.00;99.70;;;;;;5104543;28;20029;-64
2023/06/12 06:13:41;;;;;;;75.03;58.28;;;29.00;99.80;;;;;;5104642;28;20319;-65
2023/06/12 06:16:07;;;;;;;65.35;51.15;;;29.00;99.70;;;;;;5104517;28;20103;-65
2023/06/12 06:18:34;;;;;;;57.00;43.15;;;29.00;99.70;;;;;;5104359;28;20028;-63
2023/06/12 06:21:00;;;;;;;52.60;35.00;;;28.90;99.70;;;;;;5104446;28;20055;-64
2023/06/12 06:23:27;;;;;;;33.88;24.70;;;28.90;99.80;;;;;;5104405;28;20335;-65
2023/06/12 06:25:53;;;;;;;25.85;16.88;;;28.90;99.90;;;;;;5098302;28;20051;-63
2023/06/12 06:28:20;;;;;;;22.80;11.95;;;28.90;99.90;;;;;;5104269;28;20020;-65
2023/06/12 06:30:46;;;;;;;16.00;8.57;;;29.00;99.90;;;;;;5104296;28;20052;-64
2023/06/12 06:33:13;;;;;;;15.40;6.65;;;29.00;99.80;;;;;;5104472;28;20158;-65
2023/06/12 06:35:40;;;;;;;10.05;4.72;;;29.00;99.60;;;;;;5104276;28;20316;-63
2023/06/12 06:38:06;;;;;;;11.13;4.22;;;28.90;99.40;;;;;;5104146;28;20035;-64
2023/06/12 06:40:33;;;;;;;6.72;3.90;;;28.80;99.20;;;;;;5104266;28;20051;-64
2023/06/12 06:42:59;;;;;;;11.13;3.33;;;28.70;99.10;;;;;;5104354;28;20034;-63
2023/06/12 06:45:26;;;;;;;10.55;2.97;;;28.70;98.90;;;;;;5099992;28;20250;-63
2023/06/12 06:47:52;;;;;;;10.50;2.67;;;28.70;98.90;;;;;;5084045;28;20025;-63
2023/06/12 06:50:19;;;;;;;6.90;2.50;;;28.70;98.80;;;;;;5084117;28;20028;-64
2023/06/12 06:52:45;;;;;;;6.93;2.42;;;28.70;98.60;;;;;;5084107;28;20069;-63
2023/06/12 06:55:12;;;;;;;13.55;2.53;;;28.60;98.50;;;;;;5084184;28;20028;-65
2023/06/12 06:57:38;;;;;;;10.77;1.80;;;28.60;98.40;;;;;;5083777;28;20016;-63
2023/06/12 07:00:06;;;;;;;10.38;1.60;;;28.50;98.30;;;;;;5084262;28;20039;-64
2023/06/12 07:02:33;;;;;;;11.73;1.70;;;28.50;98.20;;;;;;5088251;28;20077;-63
2023/06/12 07:04:59;;;;;;;5.57;1.40;;;28.50;98.10;;;;;;5084148;28;20033;-64
2023/06/12 07:07:26;;;;;;;9.88;1.92;;;28.40;98.00;;;;;;5083474;28;20052;-64
2023/06/12 07:09:52;;;;;;;10.10;1.40;;;28.40;98.10;;;;;;5068780;28;20041;-63
2023/06/12 07:12:19;;;;;;;7.53;1.33;;;28.40;97.90;;;;;;5082145;28;20024;-63
2023/06/12 07:14:46;;;;;;;14.73;1.50;;;28.30;97.80;;;;;;5063887;28;20104;-63
2023/06/12 07:17:13;;;;;;;6.32;1.00;;;28.30;97.90;;;;;;5063566;28;20020;-63
2023/06/12 07:19:39;;;;;;;10.02;1.15;;;28.30;97.90;;;;;;5063761;28;20032;-63
2023/06/12 07:22:06;;;;;;;9.88;1.38;;;28.30;97.90;;;;;;5063537;28;20033;-62
2023/06/12 07:24:32;;;;;;;10.90;1.55;;;28.30;98.00;;;;;;5064097;28;20031;-64
2023/06/12 07:26:59;;;;;;;5.00;1.05;;;28.30;98.00;;;;;;5063597;28;20029;-63
2023/06/12 07:29:27;;;;;;;10.23;1.30;;;28.40;98.10;;;;;;5063712;28;20084;-63
2023/06/12 07:31:53;;;;;;;8.30;1.02;;;28.40;98.10;;;;;;5063383;28;20024;-63
2023/06/12 07:34:20;;;;;;;6.22;1.00;;;28.40;98.20;;;;;;5063475;28;20301;-63
2023/06/12 07:36:46;;;;;;;10.35;1.50;;;28.40;98.20;;;;;;5063583;28;20033;-63
2023/06/12 07:39:13;;;;;;;7.03;1.20;;;28.40;98.30;;;;;;5063730;28;20313;-65
2023/06/12 07:41:42;;;;;;;5.93;1.27;;;28.40;98.30;;;;;;5063252;28;20029;-63
2023/06/12 07:44:12;;;;;;;8.00;1.35;;;28.40;98.20;;;;;;5063709;28;20045;-63
2023/06/12 07:46:41;;;;;;;6.22;1.15;;;28.30;98.10;;;;;;5063342;28;20055;-65
2023/06/12 07:49:08;;;;;;;8.18;1.58;;;28.30;98.10;;;;;;5063335;28;20032;-64
2023/06/12 07:51:34;;;;;;;8.18;1.40;;;28.30;98.00;;;;;;5063272;28;20025;-63
2023/06/12 07:54:01;;;;;;;6.70;1.67;;;28.20;98.00;;;;;;5063491;28;20327;-63
2023/06/12 07:56:27;;;;;;;7.32;1.60;;;28.10;97.90;;;;;;5063315;28;20052;-65
2023/06/12 07:58:54;;;;;;;5.57;1.33;;;28.10;97.90;;;;;;5063508;28;20062;-65
2023/06/12 08:01:22;;;;;;;7.88;1.55;;;28.20;97.90;;;;;;5063693;28;20031;-63
2023/06/12 08:03:49;;;;;;;6.32;1.10;;;28.10;97.80;;;;;;5066886;28;20224;-63
2023/06/12 08:06:15;;;;;;;7.30;1.02;;;28.10;97.90;;;;;;5066691;28;20173;-63
2023/06/12 08:08:44;;;;;;;11.40;1.30;;;28.10;97.90;;;;;;5066834;28;20045;-63
2023/06/12 08:11:11;;;;;;;6.18;1.00;;;28.00;97.90;;;;;;5066542;28;20384;-64
2023/06/12 08:13:38;;;;;;;7.28;1.00;;;28.00;98.00;;;;;;5066560;28;20029;-62
2023/06/12 08:16:07;;;;;;;5.85;0.93;;;28.10;98.10;;;;;;5066688;28;20193;-64
2023/06/12 08:18:34;;;;;;;8.98;1.40;;;28.00;98.10;;;;;;5066400;28;20087;-63
2023/06/12 08:21:01;;;;;;;7.30;1.15;;;28.00;98.20;;;;;;5066418;28;20102;-63
2023/06/12 08:23:27;;;;;;;10.00;1.13;;;28.00;98.20;;;;;;5066565;28;20024;-63
2023/06/12 08:25:54;;;;;;;7.65;1.15;;;28.00;98.20;;;;;;5066216;28;20071;-63
2023/06/12 08:28:20;;;;;;;5.20;1.00;;;28.00;98.20;;;;;;5066247;28;20212;-64
2023/06/12 08:30:47;;;;;;;5.32;1.08;;;27.90;98.30;;;;;;5066445;28;20021;-63
2023/06/12 08:33:16;;;;;;;6.25;1.13;;;28.00;98.40;;;;;;5066057;28;20029;-64
2023/06/12 08:35:43;;;;;;;8.68;1.40;;;28.00;98.40;;;;;;5066071;28;20329;-62
2023/06/12 08:38:09;;;;;;;9.27;1.23;;;28.10;98.40;;;;;;5066068;28;20021;-63
2023/06/12 08:40:36;;;;;;;5.80;1.13;;;28.00;98.30;;;;;;5065964;28;20024;-62
2023/06/12 08:43:04;;;;;;;11.05;1.50;;;28.10;98.40;;;;;;5066017;28;20017;-64
2023/06/12 08:45:32;;;;;;;8.27;1.27;;;28.10;98.40;;;;;;5066322;28;20028;-63
2023/06/12 08:48:00;;;;;;;6.07;0.98;;;28.10;98.20;;;;;;5065859;28;20096;-64
2023/06/12 08:50:27;;;;;;;10.10;1.17;;;28.10;98.20;;;;;;5065832;28;20028;-63
2023/06/12 08:52:55;;;;;;;7.80;1.13;;;28.10;98.30;;;;;;5065928;28;20028;-64
2023/06/12 08:55:23;;;;;;;7.93;0.90;;;28.00;98.10;;;;;;5065486;28;20048;-65
2023/06/12 08:57:51;;;;;;;6.13;1.05;;;28.00;98.20;;;;;;5065755;28;20025;-65
2023/06/12 09:00:17;;;;;;;5.10;1.05;;;27.90;98.20;;;;;;5066185;28;20021;-66
2023/06/12 09:02:49;;;;;;;5.68;1.27;;;27.90;98.30;;;;;;5065659;28;20033;-65
2023/06/12 09:05:24;;;;;;;10.65;1.15;;;27.90;98.40;;;;;;5066212;28;20033;-64
2023/06/12 09:07:50;;;;;;;3.53;1.20;;;27.90;98.40;;;;;;5065806;28;20240;-65
2023/06/12 09:10:17;;;;;;;8.45;1.02;;;27.90;98.50;;;;;;5066011;28;20029;-65
2023/06/12 09:12:45;;;;;;;7.47;0.80;;;27.90;98.50;;;;;;5065501;28;20032;-65
2023/06/12 09:15:18;;;;;;;7.88;1.02;;;27.90;98.60;;;;;;5065842;28;20059;-65
2023/06/12 09:17:55;;;;;;;6.78;1.10;;;27.90;98.60;;;;;;5065543;28;20080;-64
2023/06/12 09:20:27;;;;;;;6.60;1.15;;;27.90;98.40;;;;;;5065904;28;20079;-65
2023/06/12 09:22:54;;;;;;;;;;;27.90;98.40;;;;;;5065544;28;20021;-64
2023/06/12 09:25:21;;;;;;;6.47;1.20;;;27.90;98.30;;;;;;5065651;28;20097;-64
2023/06/12 09:27:48;;;;;;;6.55;1.13;;;27.80;98.20;;;;;;5065236;28;20028;-64
2023/06/12 09:30:14;;;;;;;8.02;1.40;;;27.80;98.30;;;;;;5065554;28;20024;-63
2023/06/12 09:32:44;;;;;;;5.97;1.30;;;27.70;98.30;;;;;;5065178;28;20078;-62
2023/06/12 09:35:13;;;;;;;5.72;1.40;;;27.70;98.20;;;;;;5065590;28;20044;-62
2023/06/12 09:37:42;;;;;;;7.00;1.13;;;27.70;98.20;;;;;;5065042;28;20043;-63
2023/06/12 09:40:13;;;;;;;7.60;1.30;;;27.70;98.20;;;;;;5065087;28;20033;-62
2023/06/12 09:42:42;;;;;;;7.50;1.20;;;27.60;98.20;;;;;;5064810;28;20080;-63
2023/06/12 09:45:15;;;;;;;8.70;1.58;;;27.70;98.20;;;;;;5065575;28;20605;-62
2023/06/12 09:47:50;;;;;;;5.38;1.20;;;27.60;98.10;;;;;;5064874;28;20067;-63
2023/06/12 09:50:18;;;;;;;6.22;1.20;;;27.60;98.10;;;;;;5065096;28;20096;-65
2023/06/12 09:52:47;;;;;;;2.70;0.73;;;27.60;98.20;;;;;;5064735;28;20025;-64
2023/06/12 09:55:16;;;;;;;7.35;1.00;;;27.60;98.10;;;;;;5065185;28;20048;-64
2023/06/12 09:57:48;;;;;;;7.07;1.35;;;27.60;98.20;;;;;;5064676;28;20332;-63
2023/06/12 10:00:16;;;;;;;6.75;1.10;;;27.60;98.30;;;;;;5065127;28;20029;-64
2023/06/12 10:02:52;;;;;;;9.68;1.60;;;27.70;98.20;;;;;;5064417;28;20313;-66
2023/06/12 10:05:20;;;;;;;7.82;1.67;;;27.60;98.20;;;;;;5064922;28;20246;-64
2023/06/12 10:07:52;;;;;;;8.15;1.55;;;27.60;98.20;;;;;;5064212;28;20088;-66
2023/06/12 10:10:19;;;;;;;7.60;1.20;;;27.60;98.20;;;;;;5064738;28;20033;-65
2023/06/12 10:12:46;;;;;;;8.38;1.73;;;27.60;98.40;;;;;;5064317;28;20151;-66
2023/06/12 10:15:13;;;;;;;5.72;1.50;;;27.60;98.30;;;;;;5064695;28;20055;-63
2023/06/12 10:17:41;;;;;;;8.50;1.50;;;27.70;98.20;;;;;;5064592;28;20312;-65
2023/06/12 10:20:10;;;;;;;6.57;1.25;;;27.70;98.10;;;;;;5064750;28;20104;-64
2023/06/12 10:22:37;;;;;;;8.45;1.40;;;27.70;98.10;;;;;;5064240;28;20017;-63
2023/06/12 10:25:08;;;;;;;9.07;1.60;;;27.70;97.90;;;;;;5064259;28;20036;-63
2023/06/12 10:27:39;;;;;;;11.38;1.85;;;27.70;98.00;;;;;;5064117;28;20103;-63
2023/06/12 10:30:11;;;;;;;11.90;1.98;;;27.70;97.90;;;;;;5064415;28;20040;-64
2023/06/12 10:32:38;;;;;;;10.73;1.70;;;27.60;98.00;;;;;;5064164;28;20228;-66
2023/06/12 10:35:06;;;;;;;11.32;1.77;;;27.60;98.10;;;;;;5064392;28;20619;-66
2023/06/12 10:37:38;;;;;;;8.15;1.70;;;27.60;98.30;;;;;;5064020;28;20032;-64
2023/06/12 10:40:11;;;;;;;9.48;2.13;;;27.60;98.30;;;;;;5064401;28;20082;-64
2023/06/12 10:43:05;;;;;;;11.25;2.53;;;27.60;98.30;;;;;;5063858;28;20020;-65
2023/06/12 10:45:33;;;;;;;7.82;2.20;;;27.60;98.50;;;;;;5062995;28;20075;-66
2023/06/12 10:48:05;;;;;;;12.25;2.17;;;27.60;98.60;;;;;;5063784;28;20025;-65
2023/06/12 10:50:41;;;;;;;8.95;2.13;;;27.60;98.60;;;;;;5063877;28;20048;-66
2023/06/12 10:53:15;;;;;;;5.85;1.52;;;27.60;98.70;;;;;;5063732;28;20028;-63
2023/06/12 10:55:43;;;;;;;7.32;1.83;;;27.70;98.70;;;;;;5063640;28;20104;-65
2023/06/12 10:58:15;;;;;;;5.40;1.38;;;27.70;98.70;;;;;;5063680;28;20084;-64
2023/06/12 11:00:45;;;;;;;;;;;27.60;98.70;;;;;;5064300;28;20029;-65
2023/06/12 11:03:22;;;;;;;6.13;1.38;;;27.60;98.60;;;;;;5063671;28;19900;-62
2023/06/12 11:06:00;;;;;;;5.78;1.27;;;27.60;98.50;;;;;;5063596;28;20043;-64
2023/06/12 11:08:34;;;;;;;6.15;1.30;;;27.60;98.50;;;;;;5063599;28;20076;-65
2023/06/12 11:11:07;;;;;;;8.40;1.13;;;27.50;98.50;;;;;;5063782;28;20067;-65
2023/06/12 11:13:35;;;;;;;4.63;1.00;;;27.50;98.50;;;;;;5063627;28;20208;-63
2023/06/12 11:16:02;;;;;;;6.72;1.30;;;27.60;98.60;;;;;;5063526;28;20060;-64
2023/06/12 11:18:28;;;;;;;6.05;1.23;;;27.60;98.50;;;;;;5063532;28;20021;-63
2023/06/12 11:20:56;;;;;;;10.15;1.65;;;27.60;98.50;;;;;;5063654;28;20020;-65
2023/06/12 11:23:27;;;;;;;6.55;1.40;;;27.70;98.50;;;;;;5063594;28;20132;-64
2023/06/12 11:25:56;;;;;;;9.65;1.73;;;27.60;98.30;;;;;;5063498;28;20427;-63
2023/06/12 11:28:24;;;;;;;7.00;1.30;;;27.70;98.40;;;;;;5063668;28;20037;-63
2023/06/12 11:30:51;;;;;;;7.28;1.20;;;27.70;98.20;;;;;;5063571;28;20036;-63
2023/06/12 11:33:18;;;;;;;7.45;1.23;;;27.70;98.00;;;;;;5063346;28;20020;-63
2023/06/12 11:35:49;;;;;;;5.97;1.30;;;27.70;98.10;;;;;;5063378;28;20332;-65
2023/06/12 11:38:18;;;;;;;8.32;1.55;;;27.70;97.90;;;;;;5066931;28;20032;-63
2023/06/12 11:40:45;;;;;;;5.00;1.35;;;27.70;98.00;;;;;;5067139;28;20031;-64
2023/06/12 11:43:12;;;;;;;5.20;1.25;;;27.70;97.80;;;;;;5067555;28;20092;-64
2023/06/12 11:45:41;;;;;;;6.95;1.40;;;27.60;97.70;;;;;;5067233;28;20059;-63
2023/06/12 11:48:14;;;;;;;7.50;1.30;;;27.60;97.70;;;;;;5066999;28;20025;-63
2023/06/12 11:50:47;;;;;;;;;;;27.60;97.70;;;;;;5067786;28;20168;-63
2023/06/12 11:53:15;;;;;;;10.23;1.48;;;27.60;97.80;;;;;;5067022;28;20161;-62
2023/06/12 11:55:45;;;;;;;14.10;1.45;;;27.60;97.90;;;;;;5066923;28;20033;-59
2023/06/12 11:58:11;;;;;;;10.00;1.50;;;27.70;98.20;;;;;;5066971;28;20016;-61
2023/06/12 12:00:40;;;;;;;4.82;1.30;;;27.70;97.90;;;;;;5066730;28;20028;-60
2023/06/12 12:03:09;;;;;;;6.13;1.33;;;27.70;97.80;;;;;;5066806;28;20025;-62
2023/06/12 12:05:37;;;;;;;8.80;1.77;;;27.70;97.80;;;;;;5066824;28;20060;-62
2023/06/12 12:08:06;;;;;;;7.15;1.40;;;27.70;97.90;;;;;;5066446;28;20116;-63
2023/06/12 12:10:37;;;;;;;9.80;1.50;;;27.70;97.90;;;;;;5065757;28;20091;-64
2023/06/12 12:13:04;;;;;;;6.68;1.25;;;27.80;98.00;;;;;;5065113;28;20059;-62
2023/06/12 12:15:36;;;;;;;5.43;1.50;;;27.80;98.00;;;;;;5065705;28;20041;-64
2023/06/12 12:18:03;;;;;;;7.32;1.42;;;27.80;98.10;;;;;;5066532;28;20028;-63
2023/06/12 12:20:30;;;;;;;6.90;1.33;;;27.90;98.10;;;;;;5066606;28;20092;-62
2023/06/12 12:22:59;;;;;;;8.18;1.50;;;27.90;98.20;;;;;;5066680;28;20052;-62
2023/06/12 12:25:31;;;;;;;7.13;2.35;;;27.90;98.10;;;;;;5066972;28;20021;-63
2023/06/12 12:28:00;;;;;;;10.60;2.20;;;27.90;98.10;;;;;;5066312;28;20318;-63
2023/06/12 12:30:27;;;;;;;7.00;1.60;;;27.90;98.00;;;;;;5066331;28;20264;-63
2023/06/12 12:32:55;;;;;;;6.55;1.70;;;28.00;98.00;;;;;;5066283;28;20070;-64
2023/06/12 12:35:23;;;;;;;5.85;1.52;;;27.90;97.90;;;;;;5066573;28;20032;-62
2023/06/12 12:37:51;;;;;;;9.50;1.63;;;27.90;98.00;;;;;;5065940;28;20087;-63
2023/06/12 12:40:18;;;;;;;6.25;1.50;;;27.90;98.00;;;;;;5066459;28;20104;-64
2023/06/12 12:42:47;;;;;;;9.30;1.35;;;27.90;97.90;;;;;;5066045;28;20025;-64
2023/06/12 12:45:15;;;;;;;7.68;1.55;;;27.90;97.90;;;;;;5066523;28;20048;-63
2023/06/12 12:47:52;;;;;;;7.20;1.67;;;27.90;97.90;;;;;;5065864;28;20100;-64
2023/06/12 12:50:20;;;;;;;4.05;1.00;;;27.90;97.90;;;;;;5066474;28;20068;-64